createdAt,value
2023-03-16T00:00:53.983Z,37.63
2023-03-16T00:03:21.953Z,36.51
2023-03-16T00:05:51.553Z,37.59
2023-03-16T00:08:19.617Z,36.42
2023-03-16T00:10:47.992Z,37.43
2023-03-16T00:13:17.170Z,38.44
2023-03-16T00:15:55.378Z,39.02
2023-03-16T00:18:27.220Z,36.52
2023-03-16T00:20:59.511Z,37.78
2023-03-16T00:23:27.371Z,39.78
2023-03-16T00:25:59.699Z,37.71
2023-03-16T00:28:28.361Z,37.12
2023-03-16T00:30:59.181Z,37.57
2023-03-16T00:33:27.367Z,38.44
2023-03-16T00:36:02.382Z,37.50
2023-03-16T00:38:34.975Z,38.17
2023-03-16T00:41:04.177Z,36.88
2023-03-16T00:43:41.029Z,38.39
2023-03-16T00:46:13.437Z,37.29
2023-03-16T00:48:43.482Z,37.11
2023-03-16T00:51:16.292Z,36.17
2023-03-16T00:53:45.187Z,38.64
2023-03-16T00:56:14.065Z,37.76
2023-03-16T00:58:43.522Z,37.38
2023-03-16T01:01:15.219Z,37.04
2023-03-16T01:03:42.951Z,37.75
2023-03-16T01:06:17.120Z,42.84
2023-03-16T01:08:45.378Z,41.90
2023-03-16T01:11:17.432Z,42.84
2023-03-16T01:13:47.181Z,43.93
2023-03-16T01:16:16.146Z,40.13
2023-03-16T01:18:43.596Z,40.34
2023-03-16T01:21:15.508Z,40.63
2023-03-16T01:23:44.243Z,40.52
2023-03-16T01:26:12.836Z,39.65
2023-03-16T01:28:40.256Z,38.06
2023-03-16T01:31:09.964Z,38.14
2023-03-16T01:33:38.490Z,37.58
2023-03-16T01:36:10.448Z,40.89
2023-03-16T01:38:38.445Z,38.02
2023-03-16T01:41:06.182Z,37.73
2023-03-16T01:43:35.103Z,36.68
2023-03-16T01:46:05.702Z,40.23
2023-03-16T01:48:37.617Z,37.42
2023-03-16T01:51:08.058Z,38.33
2023-03-16T01:53:36.069Z,37.30
2023-03-16T01:56:08.392Z,38.03
2023-03-16T01:58:37.486Z,37.44
2023-03-16T02:01:05.546Z,37.43
2023-03-16T02:03:36.477Z,39.66
2023-03-16T02:06:11.789Z,39.53
2023-03-16T02:08:42.874Z,37.96
2023-03-16T02:11:10.450Z,36.67
2023-03-16T02:13:38.677Z,36.57
2023-03-16T02:16:07.603Z,38.15
2023-03-16T02:18:35.354Z,36.01
2023-03-16T02:21:35.246Z,38.36
2023-03-16T02:24:04.600Z,38.38
2023-03-16T02:27:08.305Z,36.32
2023-03-16T02:30:02.357Z,38.75
2023-03-16T02:32:32.619Z,39.80
2023-03-16T02:35:02.466Z,40.53
2023-03-16T02:37:30.026Z,38.92
2023-03-16T02:39:57.450Z,37.61
2023-03-16T02:42:26.533Z,36.79
2023-03-16T02:44:58.412Z,37.17
2023-03-16T02:47:43.795Z,37.20
2023-03-16T02:50:13.072Z,35.79
2023-03-16T02:52:41.929Z,35.06
2023-03-16T02:55:09.747Z,35.18
2023-03-16T02:57:37.182Z,35.23
2023-03-16T03:00:11.685Z,35.18
2023-03-16T03:02:39.303Z,34.99
2023-03-16T03:05:07.209Z,35.20
2023-03-16T03:07:34.769Z,35.06
2023-03-16T03:10:03.019Z,35.54
2023-03-16T03:12:31.147Z,37.15
2023-03-16T03:14:59.050Z,35.44
2023-03-16T03:17:30.213Z,35.16
2023-03-16T03:19:59.789Z,35.07
2023-03-16T03:22:27.327Z,35.59
2023-03-16T03:24:54.788Z,38.09
2023-03-16T03:27:22.868Z,36.95
2023-03-16T03:29:52.412Z,37.38
2023-03-16T03:32:22.452Z,37.66
2023-03-16T03:34:50.116Z,35.73
2023-03-16T03:37:17.557Z,36.16
2023-03-16T03:39:45.671Z,36.28
2023-03-16T03:42:13.854Z,36.34
2023-03-16T03:44:41.379Z,35.78
2023-03-16T03:47:09.016Z,35.92
2023-03-16T03:49:36.751Z,36.11
2023-03-16T03:52:05.100Z,36.48
2023-03-16T03:54:32.634Z,37.35
2023-03-16T03:57:00.697Z,37.34
2023-03-16T03:59:28.081Z,36.73
2023-03-16T04:01:57.370Z,36.88
2023-03-16T04:04:25.652Z,37.88
2023-03-16T04:06:53.213Z,37.61
2023-03-16T04:09:20.853Z,37.35
2023-03-16T04:11:48.743Z,36.95
2023-03-16T04:14:16.152Z,36.71
2023-03-16T04:16:44.479Z,36.81
2023-03-16T04:19:12.845Z,39.02
2023-03-16T04:21:40.259Z,37.66
2023-03-16T04:24:07.877Z,38.69
2023-03-16T04:26:36.500Z,40.37
2023-03-16T04:29:04.223Z,41.92
2023-03-16T04:31:32.123Z,38.82
2023-03-16T04:34:00.007Z,39.73
2023-03-16T04:36:27.476Z,38.84
2023-03-16T04:38:55.863Z,39.02
2023-03-16T04:41:24.263Z,37.80
2023-03-16T04:43:52.571Z,39.29
2023-03-16T04:46:20.156Z,38.13
2023-03-16T04:48:47.940Z,39.32
2023-03-16T04:51:15.491Z,41.06
2023-03-16T04:53:44.662Z,39.56
2023-03-16T04:56:19.701Z,40.34
2023-03-16T04:58:49.394Z,40.45
2023-03-16T05:01:18.422Z,40.31
2023-03-16T05:03:46.477Z,41.04
2023-03-16T05:06:14.544Z,40.87
2023-03-16T05:08:42.521Z,41.22
2023-03-16T05:11:10.250Z,40.48
2023-03-16T05:13:38.503Z,40.58
2023-03-16T05:16:07.229Z,40.58
2023-03-16T05:18:35.606Z,41.44
2023-03-16T05:21:03.178Z,42.29
2023-03-16T05:23:32.119Z,41.25
2023-03-16T05:26:01.047Z,41.15
2023-03-16T05:28:28.893Z,41.64
2023-03-16T05:30:57.876Z,40.43
2023-03-16T05:33:25.763Z,40.36
2023-03-16T05:35:54.278Z,39.51
2023-03-16T05:38:23.033Z,40.55
2023-03-16T05:40:53.171Z,39.94
2023-03-16T05:43:23.168Z,40.24
2023-03-16T05:45:50.851Z,39.19
2023-03-16T05:48:18.510Z,40.22
2023-03-16T05:50:47.005Z,39.11
2023-03-16T05:53:15.327Z,38.81
2023-03-16T05:55:42.957Z,39.19
2023-03-16T05:58:11.889Z,37.75
2023-03-16T06:00:39.707Z,38.06
2023-03-16T06:03:08.024Z,38.32
2023-03-16T06:05:35.893Z,37.70
2023-03-16T06:08:03.781Z,37.30
2023-03-16T06:10:31.779Z,38.93
2023-03-16T06:13:00.018Z,37.48
2023-03-16T06:15:30.411Z,37.65
2023-03-16T06:17:58.878Z,37.10
2023-03-16T06:20:26.476Z,37.15
2023-03-16T06:22:55.838Z,37.84
2023-03-16T06:25:24.169Z,37.11
2023-03-16T06:27:52.189Z,37.31
2023-03-16T06:30:20.418Z,36.90
2023-03-16T06:32:48.649Z,38.30
2023-03-16T06:35:16.177Z,37.61
2023-03-16T06:37:44.593Z,39.01
2023-03-16T06:40:15.378Z,37.96
2023-03-16T06:42:43.720Z,38.89
2023-03-16T06:45:13.814Z,38.01
2023-03-16T06:47:41.340Z,38.32
2023-03-16T06:50:11.903Z,37.75
2023-03-16T06:52:41.556Z,38.32
2023-03-16T06:55:09.769Z,38.43
2023-03-16T06:57:37.877Z,39.07
2023-03-16T07:00:07.405Z,38.08
2023-03-16T07:02:35.814Z,37.05
2023-03-16T07:05:03.911Z,37.31
2023-03-16T07:07:31.651Z,37.15
2023-03-16T07:09:59.331Z,37.06
2023-03-16T07:12:26.742Z,38.13
2023-03-16T07:14:55.324Z,38.77
2023-03-16T07:17:23.251Z,39.69
2023-03-16T07:19:50.802Z,38.83
2023-03-16T07:22:19.410Z,38.96
2023-03-16T07:24:46.907Z,37.76
2023-03-16T07:27:14.728Z,37.55
2023-03-16T07:29:42.998Z,36.52
2023-03-16T07:32:10.532Z,37.05
2023-03-16T07:34:38.277Z,37.98
2023-03-16T07:37:06.540Z,35.79
2023-03-16T07:39:35.548Z,36.84
2023-03-16T07:42:04.232Z,36.47
2023-03-16T07:44:32.379Z,36.56
2023-03-16T07:46:59.787Z,36.50
2023-03-16T07:49:28.396Z,33.94
2023-03-16T07:51:56.688Z,32.34
2023-03-16T07:54:25.272Z,33.59
2023-03-16T07:56:52.694Z,31.94
2023-03-16T07:59:23.386Z,32.00
2023-03-16T08:01:50.891Z,29.30
2023-03-16T08:04:19.104Z,28.36
2023-03-16T08:06:47.894Z,28.53
2023-03-16T08:09:15.467Z,28.57
2023-03-16T08:11:44.399Z,29.31
2023-03-16T08:14:11.842Z,28.40
2023-03-16T08:16:40.482Z,28.77
2023-03-16T08:19:08.662Z,27.46
2023-03-16T08:21:45.788Z,29.24
2023-03-16T08:24:24.397Z,28.41
2023-03-16T08:26:51.803Z,28.81
2023-03-16T08:29:19.605Z,28.64
2023-03-16T08:31:48.192Z,29.25
2023-03-16T08:34:16.118Z,30.82
2023-03-16T08:36:44.209Z,31.44
2023-03-16T08:39:12.230Z,33.34
2023-03-16T08:41:40.950Z,34.42
2023-03-16T08:44:10.752Z,32.69
2023-03-16T08:46:39.286Z,31.75
2023-03-16T08:49:06.993Z,31.99
2023-03-16T08:51:34.613Z,31.82
2023-03-16T08:54:02.296Z,32.79
2023-03-16T08:56:30.508Z,31.93
2023-03-16T08:58:58.515Z,31.46
2023-03-16T09:01:26.815Z,31.99
2023-03-16T09:03:54.991Z,32.27
2023-03-16T09:06:22.619Z,31.97
2023-03-16T09:08:50.314Z,30.63
2023-03-16T09:11:19.017Z,29.92
2023-03-16T09:13:47.284Z,27.97
2023-03-16T09:16:16.260Z,28.28
2023-03-16T09:18:43.981Z,28.80
2023-03-16T09:21:13.869Z,28.29
2023-03-16T09:23:42.860Z,28.49
2023-03-16T09:26:12.531Z,27.14
2023-03-16T09:28:42.250Z,28.88
2023-03-16T09:31:16.801Z,26.54
2023-03-16T09:33:44.461Z,25.87
2023-03-16T09:36:13.470Z,26.28
2023-03-16T09:38:42.380Z,25.13
2023-03-16T09:41:22.468Z,23.43
2023-03-16T09:44:09.193Z,23.95
2023-03-16T09:46:42.353Z,26.12
2023-03-16T09:49:11.954Z,25.55
2023-03-16T09:51:51.319Z,24.67
2023-03-16T09:54:24.948Z,25.42
2023-03-16T09:56:52.873Z,24.91
2023-03-16T09:59:22.532Z,24.54
2023-03-16T10:01:58.322Z,24.61
2023-03-16T10:04:47.242Z,24.67
2023-03-16T10:07:30.152Z,22.64
2023-03-16T10:10:00.456Z,22.74
2023-03-16T10:12:35.269Z,23.91
2023-03-16T10:15:06.770Z,25.72
2023-03-16T10:17:44.804Z,23.98
2023-03-16T10:20:20.701Z,24.81
2023-03-16T10:22:50.834Z,26.75
2023-03-16T10:25:35.808Z,25.35
2023-03-16T10:28:03.183Z,26.69
2023-03-16T10:30:38.592Z,27.31
2023-03-16T10:33:25.871Z,27.96
2023-03-16T10:36:05.684Z,26.65
2023-03-16T10:38:49.388Z,27.00
2023-03-16T10:41:20.649Z,25.19
2023-03-16T10:43:52.612Z,24.96
2023-03-16T10:46:20.369Z,24.32
2023-03-16T10:48:53.209Z,25.97
2023-03-16T10:51:25.675Z,25.85
2023-03-16T10:53:54.509Z,25.61
2023-03-16T10:56:25.467Z,25.06
2023-03-16T10:58:52.883Z,24.77
2023-03-16T11:01:27.601Z,23.65
2023-03-16T11:03:57.082Z,22.75
2023-03-16T11:06:33.051Z,23.25
2023-03-16T11:09:09.706Z,24.64
2023-03-16T11:11:37.398Z,23.74
2023-03-16T11:14:12.841Z,23.70
2023-03-16T11:16:46.633Z,22.63
2023-03-16T11:19:27.269Z,21.81
2023-03-16T11:22:04.654Z,23.26
2023-03-16T11:24:54.176Z,24.37
2023-03-16T11:27:37.112Z,24.81
2023-03-16T11:30:11.786Z,23.55
2023-03-16T11:32:41.515Z,23.49
2023-03-16T11:35:18.414Z,22.55
2023-03-16T11:37:51.853Z,22.37
2023-03-16T11:40:41.184Z,22.38
2023-03-16T11:43:39.505Z,21.43
2023-03-16T11:46:20.186Z,21.51
2023-03-16T11:48:53.378Z,21.87
2023-03-16T11:52:15.490Z,21.49
2023-03-16T11:55:10.718Z,21.53
2023-03-16T11:58:09.732Z,20.71
2023-03-16T12:01:24.734Z,19.18
2023-03-16T12:03:58.460Z,20.84
2023-03-16T12:06:33.916Z,23.22
2023-03-16T12:09:06.436Z,23.34
2023-03-16T12:11:48.214Z,22.67
2023-03-16T12:14:30.300Z,21.18
2023-03-16T12:17:04.898Z,22.65
2023-03-16T12:19:50.875Z,21.23
2023-03-16T12:22:27.079Z,22.30
2023-03-16T12:24:55.245Z,20.81
2023-03-16T12:27:38.849Z,21.30
2023-03-16T12:30:15.341Z,19.91
2023-03-16T12:32:53.499Z,20.16
2023-03-16T12:35:45.733Z,21.12
2023-03-16T12:38:28.772Z,21.59
2023-03-16T12:41:17.665Z,20.10
2023-03-16T12:44:12.641Z,20.49
2023-03-16T12:47:15.460Z,20.14
2023-03-16T12:49:43.213Z,21.02
2023-03-16T12:52:12.858Z,21.29
2023-03-16T12:55:17.722Z,20.62
2023-03-16T12:57:47.217Z,21.24
2023-03-16T13:00:15.690Z,21.79
2023-03-16T13:02:47.286Z,21.08
2023-03-16T13:05:17.694Z,22.47
2023-03-16T13:08:06.857Z,22.37
2023-03-16T13:10:34.852Z,20.52
2023-03-16T13:13:15.028Z,21.67
2023-03-16T13:15:47.379Z,20.77
2023-03-16T13:18:15.057Z,20.10
2023-03-16T13:20:48.476Z,20.76
2023-03-16T13:23:19.150Z,20.67
2023-03-16T13:26:16.977Z,21.09
2023-03-16T13:28:51.018Z,21.17
2023-03-16T13:31:35.895Z,21.94
2023-03-16T13:34:04.177Z,22.49
2023-03-16T13:36:32.698Z,21.78
2023-03-16T13:39:15.541Z,21.68
2023-03-16T13:41:43.810Z,20.74
2023-03-16T13:44:14.829Z,21.52
2023-03-16T13:46:42.283Z,21.52
2023-03-16T13:49:12.445Z,20.94
2023-03-16T13:51:40.005Z,21.17
2023-03-16T13:54:23.612Z,21.56
2023-03-16T13:56:53.002Z,21.25
2023-03-16T13:59:21.609Z,21.27
2023-03-16T14:01:49.243Z,20.33
2023-03-16T14:04:20.072Z,20.52
2023-03-16T14:07:01.954Z,20.99
2023-03-16T14:09:34.498Z,20.66
2023-03-16T14:12:02.564Z,20.44
2023-03-16T14:14:32.397Z,19.45
2023-03-16T14:17:02.953Z,19.21
2023-03-16T14:19:36.097Z,20.40
2023-03-16T14:22:06.933Z,19.70
2023-03-16T14:24:37.421Z,19.79
2023-03-16T14:27:21.833Z,19.39
2023-03-16T14:30:15.433Z,20.53
2023-03-16T14:32:58.492Z,20.51
2023-03-16T14:35:31.850Z,21.58
2023-03-16T14:38:21.760Z,20.31
2023-03-16T14:40:54.885Z,21.58
2023-03-16T14:43:29.318Z,21.05
2023-03-16T14:45:57.521Z,19.90
2023-03-16T14:48:25.353Z,19.67
2023-03-16T14:50:54.864Z,19.76
2023-03-16T14:53:24.283Z,19.47
2023-03-16T14:55:52.228Z,20.37
2023-03-16T14:58:19.632Z,20.63
2023-03-16T15:00:53.157Z,20.66
2023-03-16T15:03:27.063Z,20.83
2023-03-16T15:05:54.767Z,21.22
2023-03-16T15:08:28.712Z,19.56
2023-03-16T15:10:58.909Z,20.84
2023-03-16T15:13:42.496Z,20.66
2023-03-16T15:16:11.730Z,20.20
2023-03-16T15:18:39.904Z,20.30
2023-03-16T15:21:12.965Z,20.90
2023-03-16T15:23:42.884Z,20.26
2023-03-16T15:26:16.120Z,21.62
2023-03-16T15:28:43.990Z,22.79
2023-03-16T15:31:14.209Z,21.17
2023-03-16T15:33:42.215Z,21.40
2023-03-16T15:36:20.494Z,20.76
2023-03-16T15:38:53.985Z,20.62
2023-03-16T15:41:23.461Z,20.96
2023-03-16T15:43:52.698Z,20.78
2023-03-16T15:46:20.900Z,21.73
2023-03-16T15:48:48.594Z,20.58
2023-03-16T15:51:30.705Z,20.96
2023-03-16T15:54:00.443Z,20.63
2023-03-16T15:56:51.019Z,20.75
2023-03-16T15:59:22.242Z,21.15
2023-03-16T16:01:50.624Z,21.14
2023-03-16T16:04:23.501Z,20.93
2023-03-16T16:06:54.809Z,20.86
2023-03-16T16:09:22.824Z,20.04
2023-03-16T16:11:51.432Z,19.59
2023-03-16T16:14:24.816Z,20.06
2023-03-16T16:16:54.430Z,19.65
2023-03-16T16:19:22.060Z,20.20
2023-03-16T16:21:49.540Z,20.33
2023-03-16T16:24:18.394Z,20.27
2023-03-16T16:26:54.941Z,19.97
2023-03-16T16:29:25.768Z,21.04
2023-03-16T16:31:53.449Z,20.70
2023-03-16T16:34:24.659Z,20.51
2023-03-16T16:36:56.485Z,20.70
2023-03-16T16:39:24.255Z,21.52
2023-03-16T16:41:54.677Z,21.16
2023-03-16T16:44:24.683Z,21.65
2023-03-16T16:46:52.820Z,21.51
2023-03-16T16:49:31.059Z,21.64
2023-03-16T16:51:59.617Z,20.85
2023-03-16T16:54:31.264Z,21.35
2023-03-16T16:56:59.945Z,21.65
2023-03-16T16:59:32.182Z,21.15
2023-03-16T17:02:16.420Z,22.46
2023-03-16T17:04:43.927Z,21.76
2023-03-16T17:07:12.633Z,21.33
2023-03-16T17:09:40.072Z,21.35
2023-03-16T17:12:21.177Z,21.58
2023-03-16T17:14:49.864Z,21.35
2023-03-16T17:17:18.068Z,21.45
2023-03-16T17:19:46.927Z,21.35
2023-03-16T17:22:25.953Z,21.62
2023-03-16T17:24:54.207Z,21.76
2023-03-16T17:27:26.163Z,22.14
2023-03-16T17:29:54.298Z,21.92
2023-03-16T17:32:25.744Z,22.03
2023-03-16T17:34:53.488Z,22.77
2023-03-16T17:37:22.176Z,22.69
2023-03-16T17:39:49.944Z,22.58
2023-03-16T17:42:19.509Z,22.69
2023-03-16T17:44:51.145Z,22.74
2023-03-16T17:47:27.396Z,22.80
2023-03-16T17:49:55.039Z,22.96
2023-03-16T17:52:25.734Z,22.88
2023-03-16T17:54:54.261Z,22.68
2023-03-16T17:57:28.952Z,22.62
2023-03-16T17:59:57.305Z,22.61
2023-03-16T18:02:41.989Z,22.76
2023-03-16T18:05:22.132Z,22.75
2023-03-16T18:07:50.886Z,22.89
2023-03-16T18:10:21.961Z,23.35
2023-03-16T18:12:55.626Z,23.02
2023-03-16T18:15:31.133Z,23.43
2023-03-16T18:17:58.586Z,23.09
2023-03-16T18:20:30.955Z,23.25
2023-03-16T18:23:00.049Z,23.32
2023-03-16T18:25:30.333Z,23.65
2023-03-16T18:27:58.527Z,24.13
2023-03-16T18:30:27.243Z,24.53
2023-03-16T18:32:55.638Z,23.94
2023-03-16T18:35:23.240Z,24.07
2023-03-16T18:37:50.942Z,24.07
2023-03-16T18:40:19.246Z,24.44
2023-03-16T18:42:47.557Z,24.03
2023-03-16T18:45:16.628Z,24.39
2023-03-16T18:47:50.534Z,24.86
2023-03-16T18:50:21.943Z,24.67
2023-03-16T18:52:50.463Z,24.50
2023-03-16T18:55:21.194Z,24.33
2023-03-16T18:57:56.400Z,24.11
2023-03-16T19:00:26.590Z,24.44
2023-03-16T19:02:57.000Z,24.23
2023-03-16T19:05:35.660Z,24.69
2023-03-16T19:08:05.027Z,24.18
2023-03-16T19:10:37.976Z,24.62
2023-03-16T19:13:14.580Z,24.39
2023-03-16T19:15:42.468Z,24.53
2023-03-16T19:18:10.282Z,24.11
2023-03-16T19:20:37.817Z,24.51
2023-03-16T19:23:08.921Z,25.64
2023-03-16T19:25:38.569Z,27.85
2023-03-16T19:28:10.284Z,26.60
2023-03-16T19:30:38.611Z,25.65
2023-03-16T19:33:18.317Z,25.48
2023-03-16T19:35:51.919Z,24.68
2023-03-16T19:38:22.270Z,24.52
2023-03-16T19:40:54.347Z,24.81
2023-03-16T19:43:23.398Z,25.08
2023-03-16T19:45:51.059Z,24.10
2023-03-16T19:48:42.320Z,24.20
2023-03-16T19:51:14.784Z,23.77
2023-03-16T19:53:42.863Z,24.13
2023-03-16T19:56:20.948Z,24.04
2023-03-16T19:58:52.365Z,24.06
2023-03-16T20:01:23.443Z,24.28
2023-03-16T20:03:52.900Z,24.33
2023-03-16T20:06:22.818Z,23.78
2023-03-16T20:08:51.354Z,24.21
2023-03-16T20:11:28.619Z,23.58
2023-03-16T20:13:56.758Z,23.31
2023-03-16T20:16:36.214Z,23.68
2023-03-16T20:19:12.288Z,23.72
2023-03-16T20:21:40.657Z,24.20
2023-03-16T20:24:16.287Z,24.39
2023-03-16T20:26:45.685Z,24.29
2023-03-16T20:29:28.717Z,24.16
2023-03-16T20:31:56.910Z,24.87
2023-03-16T20:34:27.086Z,24.34
2023-03-16T20:36:55.116Z,24.68
2023-03-16T20:39:22.820Z,24.28
2023-03-16T20:41:50.930Z,24.46
2023-03-16T20:44:20.147Z,24.80
2023-03-16T20:46:48.056Z,24.41
2023-03-16T20:49:25.433Z,24.62
2023-03-16T20:51:53.283Z,24.95
2023-03-16T20:54:20.943Z,25.09
2023-03-16T20:56:49.194Z,24.95
2023-03-16T20:59:20.344Z,25.20
2023-03-16T21:01:49.698Z,25.13
2023-03-16T21:04:26.178Z,25.26
2023-03-16T21:06:54.242Z,24.89
2023-03-16T21:09:22.215Z,24.80
2023-03-16T21:11:49.885Z,24.80
2023-03-16T21:14:22.003Z,24.94
2023-03-16T21:16:50.581Z,25.05
2023-03-16T21:19:21.126Z,24.88
2023-03-16T21:21:48.641Z,25.03
2023-03-16T21:24:16.548Z,24.94
2023-03-16T21:26:45.169Z,25.36
2023-03-16T21:29:17.532Z,25.17
2023-03-16T21:31:45.358Z,25.37
2023-03-16T21:34:22.460Z,25.80
2023-03-16T21:36:50.434Z,24.90
2023-03-16T21:39:20.268Z,25.05
2023-03-16T21:41:50.557Z,24.63
2023-03-16T21:44:18.693Z,25.51
2023-03-16T21:46:47.409Z,25.65
2023-03-16T21:49:15.789Z,25.26
2023-03-16T21:51:43.812Z,25.59
2023-03-16T21:54:14.671Z,25.64
2023-03-16T21:56:43.035Z,25.11
2023-03-16T21:59:11.606Z,24.93
2023-03-16T22:01:50.879Z,25.00
2023-03-16T22:04:26.759Z,25.86
2023-03-16T22:06:54.204Z,25.81
2023-03-16T22:09:29.891Z,25.87
2023-03-16T22:11:57.712Z,26.82
2023-03-16T22:14:25.219Z,26.93
2023-03-16T22:16:52.688Z,26.62
2023-03-16T22:19:21.025Z,26.56
2023-03-16T22:21:49.901Z,26.86
2023-03-16T22:24:19.703Z,27.26
2023-03-16T22:26:49.060Z,27.56
2023-03-16T22:29:29.573Z,27.97
2023-03-16T22:32:01.404Z,28.14
2023-03-16T22:34:37.441Z,28.28
2023-03-16T22:37:05.699Z,28.43
2023-03-16T22:39:36.925Z,28.67
2023-03-16T22:42:39.112Z,28.70
2023-03-16T22:45:19.057Z,28.87
2023-03-16T22:47:47.782Z,29.11
2023-03-16T22:50:16.650Z,29.38
2023-03-16T22:52:46.357Z,29.14
2023-03-16T22:55:20.462Z,29.47
2023-03-16T22:57:50.584Z,29.69
2023-03-16T23:00:21.384Z,29.88
2023-03-16T23:02:49.304Z,30.18
2023-03-16T23:05:22.705Z,30.24
2023-03-16T23:07:51.936Z,30.61
2023-03-16T23:10:22.911Z,30.11
2023-03-16T23:12:51.817Z,29.85
2023-03-16T23:15:25.255Z,29.87
2023-03-16T23:17:53.138Z,30.60
2023-03-16T23:20:26.162Z,30.08
2023-03-16T23:22:54.383Z,30.04
2023-03-16T23:25:23.557Z,30.02
2023-03-16T23:27:51.831Z,30.82
2023-03-16T23:30:24.134Z,31.25
2023-03-16T23:32:53.656Z,31.08
2023-03-16T23:35:23.870Z,30.93
2023-03-16T23:37:51.849Z,31.24
2023-03-16T23:40:20.664Z,31.34
2023-03-16T23:42:49.038Z,31.31
2023-03-16T23:45:44.554Z,31.18
2023-03-16T23:48:18.062Z,31.56
2023-03-16T23:50:47.811Z,31.03
2023-03-16T23:53:17.683Z,31.19
2023-03-16T23:55:45.731Z,31.47
2023-03-16T23:58:14.454Z,31.18
